createdAt,value
2022-09-30T00:01:32.296Z,2.20
2022-09-30T00:04:21.958Z,1.90
2022-09-30T00:07:08.945Z,2.77
2022-09-30T00:09:56.802Z,2.07
2022-09-30T00:12:43.787Z,2.17
2022-09-30T00:15:30.783Z,2.90
2022-09-30T00:18:17.781Z,2.23
2022-09-30T00:21:05.453Z,1.70
2022-09-30T00:23:52.519Z,2.00
2022-09-30T00:26:39.715Z,1.73
2022-09-30T00:29:26.682Z,2.57
2022-09-30T00:32:13.733Z,2.20
2022-09-30T00:35:00.751Z,2.17
2022-09-30T00:37:47.742Z,2.40
2022-09-30T00:40:37.665Z,2.53
2022-09-30T00:43:45.576Z,2.23
2022-09-30T00:46:43.682Z,2.23
2022-09-30T00:49:31.519Z,1.90
2022-09-30T00:52:19.451Z,3.50
2022-09-30T00:55:15.128Z,2.10
2022-09-30T00:58:04.095Z,3.47
2022-09-30T01:00:52.151Z,2.30
2022-09-30T01:03:50.300Z,2.17
2022-09-30T01:06:37.788Z,4.23
2022-09-30T01:09:25.156Z,2.10
2022-09-30T01:12:16.360Z,2.17
2022-09-30T01:15:05.030Z,2.33
2022-09-30T01:18:13.462Z,2.03
2022-09-30T01:21:34.222Z,3.07
2022-09-30T01:24:56.867Z,2.50
2022-09-30T01:27:50.052Z,2.40
2022-09-30T01:30:58.954Z,3.27
2022-09-30T01:34:05.325Z,1.90
2022-09-30T01:37:08.823Z,4.37
2022-09-30T01:40:22.487Z,2.50
2022-09-30T01:43:22.215Z,2.57
2022-09-30T01:46:24.169Z,2.50
2022-09-30T01:49:41.532Z,3.80
2022-09-30T01:52:40.014Z,4.63
2022-09-30T01:55:37.625Z,2.40
2022-09-30T01:58:46.426Z,2.50
2022-09-30T02:01:47.021Z,3.83
2022-09-30T02:04:52.304Z,2.80
2022-09-30T02:07:45.450Z,3.03
2022-09-30T02:10:44.571Z,2.80
2022-09-30T02:13:39.492Z,3.17
2022-09-30T02:16:34.985Z,2.80
2022-09-30T02:19:34.437Z,3.13
2022-09-30T02:22:44.595Z,3.00
2022-09-30T02:25:42.236Z,3.07
2022-09-30T02:28:30.223Z,3.67
2022-09-30T02:31:21.392Z,4.33
2022-09-30T02:34:30.112Z,3.30
2022-09-30T02:37:26.779Z,3.40
2022-09-30T02:40:23.705Z,6.70
2022-09-30T02:43:11.123Z,5.67
2022-09-30T02:46:19.479Z,6.83
2022-09-30T02:49:28.532Z,4.03
2022-09-30T02:52:35.827Z,3.70
2022-09-30T02:55:32.473Z,3.07
2022-09-30T02:58:26.134Z,6.77
2022-09-30T03:01:15.418Z,4.07
2022-09-30T03:04:06.254Z,3.93
2022-09-30T03:06:54.333Z,5.67
2022-09-30T03:09:41.584Z,3.30
2022-09-30T03:12:40.706Z,3.20
2022-09-30T03:15:27.878Z,6.13
2022-09-30T03:18:52.352Z,4.37
2022-09-30T03:22:05.358Z,2.97
2022-09-30T03:25:16.696Z,3.17
2022-09-30T03:28:22.817Z,2.90
2022-09-30T03:31:17.436Z,3.60
2022-09-30T03:34:22.543Z,5.80
2022-09-30T03:37:27.426Z,3.47
2022-09-30T03:40:25.379Z,3.40
2022-09-30T03:43:31.553Z,2.83
2022-09-30T03:46:34.438Z,3.10
2022-09-30T03:49:36.560Z,4.80
2022-09-30T03:52:26.279Z,3.10
2022-09-30T03:55:13.499Z,2.77
2022-09-30T03:58:00.675Z,2.83
2022-09-30T04:00:53.110Z,2.60
2022-09-30T04:03:40.120Z,3.93
2022-09-30T04:06:27.090Z,6.80
2022-09-30T04:09:14.279Z,3.77
2022-09-30T04:12:01.556Z,3.90
2022-09-30T04:14:48.699Z,3.13
2022-09-30T04:17:35.658Z,3.60
2022-09-30T04:20:22.622Z,3.37
2022-09-30T04:23:09.609Z,2.83
2022-09-30T04:25:56.689Z,3.97
2022-09-30T04:28:44.089Z,7.53
2022-09-30T04:31:31.120Z,7.47
2022-09-30T04:34:18.229Z,4.17
2022-09-30T04:37:10.591Z,3.63
2022-09-30T04:39:58.522Z,6.27
2022-09-30T04:42:46.746Z,9.03
2022-09-30T04:45:33.873Z,5.10
2022-09-30T04:48:22.532Z,3.93
2022-09-30T04:51:09.523Z,3.47
2022-09-30T04:53:56.612Z,2.70
2022-09-30T04:56:43.627Z,3.30
2022-09-30T04:59:30.650Z,3.40
2022-09-30T05:02:17.684Z,3.30
2022-09-30T05:05:05.142Z,3.17
2022-09-30T05:07:52.116Z,2.90
2022-09-30T05:10:40.360Z,3.27
2022-09-30T05:13:33.340Z,2.33
2022-09-30T05:16:20.587Z,2.67
2022-09-30T05:19:07.731Z,2.20
2022-09-30T05:21:55.072Z,2.33
2022-09-30T05:24:42.109Z,2.37
2022-09-30T05:27:29.601Z,2.17
2022-09-30T05:30:16.895Z,2.17
2022-09-30T05:33:04.311Z,1.90
2022-09-30T05:35:51.339Z,1.87
2022-09-30T05:38:38.731Z,2.13
2022-09-30T05:41:26.141Z,1.80
2022-09-30T05:44:13.117Z,2.10
2022-09-30T05:47:00.269Z,4.23
2022-09-30T05:49:47.259Z,2.57
2022-09-30T05:52:34.317Z,3.13
2022-09-30T05:55:22.618Z,1.80
2022-09-30T05:58:09.587Z,1.73
2022-09-30T06:00:59.272Z,2.17
2022-09-30T06:03:48.915Z,3.47
2022-09-30T06:06:36.087Z,4.17
2022-09-30T06:09:23.336Z,2.57
2022-09-30T06:12:10.964Z,2.93
2022-09-30T06:14:57.997Z,3.00
2022-09-30T06:17:46.847Z,2.70
2022-09-30T06:20:34.203Z,3.00
2022-09-30T06:23:21.279Z,3.00
2022-09-30T06:26:11.726Z,3.10
2022-09-30T06:28:58.790Z,2.63
2022-09-30T06:31:45.777Z,2.70
2022-09-30T06:34:32.940Z,2.60
2022-09-30T06:37:19.894Z,2.43
2022-09-30T06:40:07.702Z,2.40
2022-09-30T06:42:59.765Z,2.20
2022-09-30T06:45:51.806Z,2.83
2022-09-30T06:48:40.490Z,2.03
2022-09-30T06:51:30.164Z,2.50
2022-09-30T06:54:17.682Z,2.23
2022-09-30T06:57:04.819Z,2.30
2022-09-30T06:59:52.132Z,2.37
2022-09-30T07:02:39.952Z,2.20
2022-09-30T07:05:26.925Z,2.57
2022-09-30T07:08:13.877Z,2.20
2022-09-30T07:11:04.434Z,2.43
2022-09-30T07:13:51.710Z,2.50
2022-09-30T07:16:39.318Z,2.33
2022-09-30T07:19:26.316Z,4.83
2022-09-30T07:22:31.913Z,2.37
2022-09-30T07:25:19.709Z,2.93
2022-09-30T07:28:06.669Z,2.20
2022-09-30T07:31:13.556Z,2.50
2022-09-30T07:34:08.169Z,2.40
2022-09-30T07:36:55.205Z,2.90
2022-09-30T07:39:47.709Z,2.50
2022-09-30T07:42:39.282Z,2.30
2022-09-30T07:45:26.326Z,2.50
2022-09-30T07:48:33.341Z,3.17
2022-09-30T07:51:32.350Z,2.30
2022-09-30T07:54:24.638Z,2.70
2022-09-30T07:57:12.115Z,2.90
2022-09-30T08:00:04.971Z,2.90
2022-09-30T08:03:04.320Z,2.50
2022-09-30T08:05:51.294Z,2.67
2022-09-30T08:08:38.694Z,2.63
2022-09-30T08:11:26.501Z,2.63
2022-09-30T08:14:16.021Z,2.87
2022-09-30T08:17:03.196Z,2.67
2022-09-30T08:19:50.161Z,2.97
2022-09-30T08:22:37.137Z,3.20
2022-09-30T08:25:24.977Z,2.90
2022-09-30T08:28:12.591Z,2.80
2022-09-30T08:31:14.304Z,2.63
2022-09-30T08:34:03.092Z,2.80
2022-09-30T08:36:50.075Z,3.33
2022-09-30T08:39:38.612Z,3.37
2022-09-30T08:42:57.821Z,3.10
2022-09-30T08:45:58.180Z,3.27
2022-09-30T08:49:03.506Z,3.97
2022-09-30T08:51:52.076Z,4.00
2022-09-30T08:54:48.656Z,3.17
2022-09-30T08:57:47.151Z,3.70
2022-09-30T09:00:35.763Z,3.40
2022-09-30T09:03:28.169Z,4.63
2022-09-30T09:06:35.038Z,4.07
2022-09-30T09:09:32.568Z,4.00
2022-09-30T09:12:47.283Z,3.50
2022-09-30T09:16:00.911Z,5.40
2022-09-30T09:18:59.544Z,4.07
2022-09-30T09:21:54.584Z,4.60
2022-09-30T09:24:46.222Z,4.53
2022-09-30T09:27:49.733Z,5.07
2022-09-30T09:30:43.491Z,4.70
2022-09-30T09:33:39.762Z,5.17
2022-09-30T09:36:39.298Z,4.67
2022-09-30T09:39:53.544Z,4.13
2022-09-30T09:43:02.640Z,4.60
2022-09-30T09:46:21.330Z,4.93
2022-09-30T09:49:16.070Z,5.27
2022-09-30T09:52:22.052Z,5.10
2022-09-30T09:55:10.428Z,4.90
2022-09-30T09:58:09.378Z,9.03
2022-09-30T10:01:21.266Z,8.90
2022-09-30T10:04:11.655Z,7.30
2022-09-30T10:07:01.552Z,3.70
2022-09-30T10:09:48.778Z,5.40
2022-09-30T10:12:35.829Z,15.37
2022-09-30T10:15:26.384Z,3.93
2022-09-30T10:18:23.890Z,9.97
2022-09-30T10:21:25.912Z,3.03
2022-09-30T10:24:29.376Z,2.70
2022-09-30T10:27:36.600Z,2.50
2022-09-30T10:30:44.875Z,2.53
2022-09-30T10:33:36.445Z,2.10
2022-09-30T10:36:31.603Z,3.10
2022-09-30T10:40:02.132Z,9.40
2022-09-30T10:42:49.221Z,2.77
2022-09-30T10:45:38.860Z,2.10
2022-09-30T10:48:29.473Z,2.20
2022-09-30T10:51:24.237Z,3.03
2022-09-30T10:54:39.997Z,2.23
2022-09-30T10:57:33.923Z,2.10
2022-09-30T11:00:25.277Z,3.40
2022-09-30T11:03:21.228Z,2.33
2022-09-30T11:06:15.084Z,2.07
2022-09-30T11:09:14.460Z,2.77
2022-09-30T11:12:20.109Z,2.70
2022-09-30T11:15:18.932Z,2.20
2022-09-30T11:18:21.602Z,2.23
2022-09-30T11:21:37.624Z,2.23
2022-09-30T11:24:41.779Z,2.03
2022-09-30T11:27:58.228Z,4.03
2022-09-30T11:31:07.754Z,1.80
2022-09-30T11:34:14.283Z,1.73
2022-09-30T11:37:23.554Z,1.63
2022-09-30T11:40:31.750Z,2.47
2022-09-30T11:43:40.323Z,4.07
2022-09-30T11:46:57.977Z,3.13
2022-09-30T11:50:06.883Z,2.03
2022-09-30T11:53:09.178Z,1.60
2022-09-30T11:56:06.138Z,1.67
2022-09-30T11:58:59.518Z,1.30
2022-09-30T12:01:50.272Z,1.83
2022-09-30T12:04:42.343Z,1.60
2022-09-30T12:07:58.172Z,2.03
2022-09-30T12:10:52.920Z,1.63
2022-09-30T12:13:56.200Z,1.30
2022-09-30T12:16:46.905Z,2.03
2022-09-30T12:19:44.504Z,1.20
2022-09-30T12:22:44.238Z,1.20
2022-09-30T12:25:37.864Z,1.47
2022-09-30T12:29:03.355Z,1.50
2022-09-30T12:32:01.178Z,1.37
2022-09-30T12:35:09.633Z,0.97
2022-09-30T12:38:05.252Z,0.97
2022-09-30T12:41:01.251Z,0.90
2022-09-30T12:44:06.484Z,1.87
2022-09-30T12:47:14.283Z,1.00
2022-09-30T12:50:06.100Z,1.00
2022-09-30T12:52:53.242Z,1.10
2022-09-30T12:55:42.232Z,1.00
2022-09-30T12:58:34.283Z,1.07
2022-09-30T13:01:30.241Z,1.00
2022-09-30T13:04:36.558Z,1.20
2022-09-30T13:07:23.709Z,1.10
2022-09-30T13:10:31.033Z,1.80
2022-09-30T13:13:31.773Z,0.90
2022-09-30T13:16:57.598Z,1.13
2022-09-30T13:19:51.845Z,0.60
2022-09-30T13:22:39.642Z,1.00
2022-09-30T13:25:26.780Z,1.43
2022-09-30T13:28:17.445Z,1.20
2022-09-30T13:31:20.869Z,1.27
2022-09-30T13:34:13.861Z,1.10
2022-09-30T13:37:05.901Z,1.30
2022-09-30T13:39:56.650Z,1.03
2022-09-30T13:42:50.402Z,1.50
2022-09-30T13:45:39.663Z,1.40
2022-09-30T13:48:35.631Z,1.80
2022-09-30T13:51:25.819Z,1.60
2022-09-30T13:54:32.674Z,1.70
2022-09-30T13:57:27.971Z,1.63
2022-09-30T14:00:18.946Z,1.87
2022-09-30T14:03:14.712Z,1.80
2022-09-30T14:06:10.138Z,1.90
2022-09-30T14:08:56.965Z,1.17
2022-09-30T14:12:06.202Z,1.70
2022-09-30T14:15:07.903Z,1.90
2022-09-30T14:18:19.726Z,2.27
2022-09-30T14:21:34.923Z,1.57
2022-09-30T14:24:25.514Z,1.57
2022-09-30T14:27:33.168Z,1.73
2022-09-30T14:30:23.467Z,1.90
2022-09-30T14:33:10.541Z,1.63
2022-09-30T14:36:02.016Z,2.00
2022-09-30T14:38:53.483Z,1.97
2022-09-30T14:41:52.601Z,1.90
2022-09-30T14:44:40.310Z,1.60
2022-09-30T14:47:27.514Z,1.80
2022-09-30T14:50:19.558Z,2.10
2022-09-30T14:53:24.935Z,1.80
2022-09-30T14:56:32.616Z,2.40
2022-09-30T14:59:22.494Z,2.50
2022-09-30T15:02:18.382Z,2.13
2022-09-30T15:05:05.698Z,3.17
2022-09-30T15:07:53.660Z,2.17
2022-09-30T15:10:48.399Z,2.43
2022-09-30T15:13:37.605Z,1.50
2022-09-30T15:16:30.998Z,1.40
2022-09-30T15:19:19.994Z,1.50
2022-09-30T15:22:09.377Z,1.47
2022-09-30T15:24:59.644Z,1.60
2022-09-30T15:27:47.064Z,1.30
2022-09-30T15:30:34.077Z,1.20
2022-09-30T15:33:27.963Z,1.30
2022-09-30T15:36:17.911Z,1.70
2022-09-30T15:39:14.110Z,1.37
2022-09-30T15:42:01.090Z,1.40
2022-09-30T15:44:48.115Z,2.10
2022-09-30T15:47:55.307Z,1.73
2022-09-30T15:50:46.335Z,1.30
2022-09-30T15:53:35.942Z,1.30
2022-09-30T15:56:43.491Z,1.50
2022-09-30T15:59:57.709Z,1.37
2022-09-30T16:02:44.682Z,1.30
2022-09-30T16:05:32.450Z,1.50
2022-09-30T16:08:28.077Z,1.37
2022-09-30T16:11:28.309Z,1.27
2022-09-30T16:14:22.694Z,1.40
2022-09-30T16:17:20.945Z,1.20
2022-09-30T16:20:28.208Z,1.50
2022-09-30T16:23:30.807Z,1.40
2022-09-30T16:26:28.576Z,1.20
2022-09-30T16:29:17.861Z,1.50
2022-09-30T16:32:05.946Z,1.33
2022-09-30T16:34:53.433Z,1.30
2022-09-30T16:37:42.863Z,1.23
2022-09-30T16:40:32.125Z,1.60
2022-09-30T16:43:19.066Z,1.10
2022-09-30T16:46:07.017Z,1.00
2022-09-30T16:48:54.577Z,4.23
2022-09-30T16:51:42.094Z,1.40
2022-09-30T16:54:29.034Z,1.10
2022-09-30T16:57:16.044Z,1.30
2022-09-30T17:00:03.363Z,1.13
2022-09-30T17:02:50.526Z,1.00
2022-09-30T17:05:40.425Z,1.10
2022-09-30T17:08:27.387Z,1.10
2022-09-30T17:11:15.127Z,1.13
2022-09-30T17:14:04.431Z,2.17
2022-09-30T17:16:52.195Z,1.40
2022-09-30T17:19:39.301Z,1.40
2022-09-30T17:22:26.224Z,3.93
2022-09-30T17:25:14.179Z,1.10
2022-09-30T17:28:01.432Z,1.10
2022-09-30T17:30:49.310Z,1.20
2022-09-30T17:33:38.949Z,1.10
2022-09-30T17:36:26.020Z,1.20
2022-09-30T17:39:13.075Z,2.40
2022-09-30T17:42:18.697Z,1.40
2022-09-30T17:45:06.169Z,1.17
2022-09-30T17:47:53.043Z,1.20
2022-09-30T17:50:44.590Z,1.10
2022-09-30T17:53:32.553Z,1.90
2022-09-30T17:56:22.473Z,1.17
2022-09-30T17:59:09.702Z,1.17
2022-09-30T18:01:56.852Z,1.60
2022-09-30T18:04:44.585Z,1.20
2022-09-30T18:07:31.508Z,1.10
2022-09-30T18:10:18.537Z,1.43
2022-09-30T18:13:06.427Z,1.23
2022-09-30T18:15:54.994Z,1.00
2022-09-30T18:18:41.906Z,1.50
2022-09-30T18:21:28.927Z,1.57
2022-09-30T18:24:15.953Z,1.30
2022-09-30T18:27:02.963Z,1.70
2022-09-30T18:29:50.025Z,1.10
2022-09-30T18:32:37.584Z,1.00
2022-09-30T18:35:25.027Z,1.10
2022-09-30T18:38:13.315Z,2.93
2022-09-30T18:41:00.272Z,1.00
2022-09-30T18:43:50.572Z,1.23
2022-09-30T18:46:37.547Z,2.43
2022-09-30T18:49:24.513Z,1.23
2022-09-30T18:52:11.519Z,1.80
2022-09-30T18:54:58.526Z,1.07
2022-09-30T18:57:50.264Z,1.20
2022-09-30T19:00:37.733Z,1.10
2022-09-30T19:03:29.170Z,1.30
2022-09-30T19:06:16.213Z,1.20
2022-09-30T19:09:06.454Z,1.40
2022-09-30T19:11:53.748Z,1.27
2022-09-30T19:14:43.578Z,3.80
2022-09-30T19:17:31.805Z,1.20
2022-09-30T19:20:18.797Z,1.20
2022-09-30T19:23:10.565Z,1.13
2022-09-30T19:25:59.574Z,1.30
2022-09-30T19:28:47.254Z,2.63
2022-09-30T19:31:36.728Z,1.10
2022-09-30T19:34:31.519Z,1.10
2022-09-30T19:37:27.041Z,1.20
2022-09-30T19:40:21.561Z,1.33
2022-09-30T19:43:08.974Z,1.20
2022-09-30T19:46:04.473Z,2.00
2022-09-30T19:48:51.518Z,1.70
2022-09-30T19:51:38.490Z,1.20
2022-09-30T19:54:35.919Z,1.13
2022-09-30T19:57:26.958Z,1.20
2022-09-30T20:00:13.954Z,1.37
2022-09-30T20:03:00.877Z,1.07
2022-09-30T20:05:47.813Z,1.23
2022-09-30T20:08:36.213Z,1.10
2022-09-30T20:11:24.214Z,1.53
2022-09-30T20:14:29.899Z,1.30
2022-09-30T20:17:16.840Z,1.20
2022-09-30T20:20:22.822Z,1.23
2022-09-30T20:23:09.758Z,1.80
2022-09-30T20:25:56.922Z,2.63
2022-09-30T20:28:44.054Z,1.23
2022-09-30T20:31:31.562Z,1.20
2022-09-30T20:34:20.020Z,2.77
2022-09-30T20:37:07.050Z,1.20
2022-09-30T20:39:53.985Z,1.07
2022-09-30T20:42:41.257Z,2.80
2022-09-30T20:45:28.453Z,2.70
2022-09-30T20:48:15.426Z,1.30
2022-09-30T20:51:06.868Z,1.40
2022-09-30T20:53:55.457Z,1.47
2022-09-30T20:57:05.934Z,1.20
2022-09-30T20:59:49.308Z,1.30
2022-09-30T21:02:36.310Z,1.10
2022-09-30T21:05:23.637Z,1.23
2022-09-30T21:08:10.565Z,1.23
2022-09-30T21:11:02.122Z,1.40
2022-09-30T21:13:51.884Z,2.10
2022-09-30T21:16:38.867Z,1.50
2022-09-30T21:19:25.850Z,1.87
2022-09-30T21:22:12.822Z,2.63
2022-09-30T21:24:59.747Z,1.40
2022-09-30T21:27:47.913Z,1.40
2022-09-30T21:30:41.144Z,1.43
2022-09-30T21:33:28.074Z,1.20
2022-09-30T21:36:15.005Z,2.10
2022-09-30T21:39:02.572Z,1.40
2022-09-30T21:41:49.503Z,1.63
2022-09-30T21:44:36.403Z,2.30
2022-09-30T21:47:23.395Z,2.23
2022-09-30T21:50:10.326Z,2.80
2022-09-30T21:52:59.272Z,2.70
2022-09-30T21:55:49.305Z,2.80
2022-09-30T21:58:36.458Z,2.77
2022-09-30T22:01:23.453Z,2.23
2022-09-30T22:04:10.408Z,2.50
2022-09-30T22:06:57.421Z,2.70
2022-09-30T22:09:44.338Z,2.47
2022-09-30T22:12:33.037Z,2.40
2022-09-30T22:15:20.065Z,2.53
2022-09-30T22:18:12.096Z,2.33
2022-09-30T22:21:05.710Z,3.07
2022-09-30T22:23:53.314Z,2.70
2022-09-30T22:26:41.306Z,2.73
2022-09-30T22:29:31.510Z,2.47
2022-09-30T22:32:18.512Z,2.80
2022-09-30T22:35:24.414Z,3.80
2022-09-30T22:38:16.731Z,2.40
2022-09-30T22:41:03.722Z,2.63
2022-09-30T22:43:50.645Z,5.27
2022-09-30T22:46:39.311Z,2.63
2022-09-30T22:49:27.811Z,2.70
2022-09-30T22:52:14.872Z,2.63
2022-09-30T22:55:01.800Z,2.40
2022-09-30T22:57:48.818Z,2.27
2022-09-30T23:00:35.753Z,2.00
2022-09-30T23:03:25.349Z,2.60
2022-09-30T23:06:12.345Z,2.57
2022-09-30T23:08:59.267Z,2.53
2022-09-30T23:11:46.581Z,2.90
2022-09-30T23:14:33.511Z,2.50
2022-09-30T23:17:20.459Z,4.50
2022-09-30T23:20:08.510Z,2.13
2022-09-30T23:22:55.463Z,3.07
2022-09-30T23:25:42.386Z,3.03
2022-09-30T23:28:29.822Z,2.80
2022-09-30T23:31:17.524Z,2.73
2022-09-30T23:34:04.518Z,3.10
2022-09-30T23:36:51.496Z,3.43
2022-09-30T23:39:38.430Z,3.73
2022-09-30T23:42:25.354Z,3.83
2022-09-30T23:45:12.315Z,3.73
2022-09-30T23:47:59.267Z,3.83
2022-09-30T23:50:49.602Z,4.00
2022-09-30T23:53:36.562Z,3.70
2022-09-30T23:56:23.930Z,4.03
2022-09-30T23:59:13.209Z,4.70
